Time;durP1;ratioP1;P1;durP2;ratioP2;P2;SDS_P1;SDS_P2;PMS_P1;PMS_P2;Temp;Humidity;BMP_temperature;BMP_pressure;BME280_temperature;BME280_humidity;BME280_pressure;Samples;Min_cycle;Max_cycle;Signal;HPM_P1;HPM_P2
2022/03/14 00:01:42;;;;;;;19.00;14.02;;;9.60;56.90;;;;;;5074264;28;20237;-68
2022/03/14 00:04:11;;;;;;;18.00;13.80;;;9.70;56.30;;;;;;5073837;28;20665;-68
2022/03/14 00:06:37;;;;;;;18.38;14.80;;;9.70;56.10;;;;;;5074134;28;20723;-68
2022/03/14 00:09:07;;;;;;;16.33;13.32;;;9.70;56.90;;;;;;5074221;28;20298;-68
2022/03/14 00:11:37;;;;;;;19.20;13.30;;;9.80;56.50;;;;;;5073977;28;20229;-68
2022/03/14 00:14:06;;;;;;;15.80;13.00;;;9.80;56.60;;;;;;5073747;28;20252;-68
2022/03/14 00:16:38;;;;;;;17.80;13.85;;;9.80;57.00;;;;;;5074021;28;20237;-68
2022/03/14 00:19:06;;;;;;;16.92;13.80;;;9.90;56.80;;;;;;5074029;28;20206;-68
2022/03/14 00:21:38;;;;;;;19.65;13.25;;;9.80;56.60;;;;;;5074007;28;20198;-68
2022/03/14 00:24:07;;;;;;;16.50;13.55;;;9.80;56.10;;;;;;5073676;28;20260;-68
2022/03/14 00:26:34;;;;;;;17.98;14.20;;;9.80;56.40;;;;;;5073760;28;20219;-68
2022/03/14 00:29:03;;;;;;;16.95;13.15;;;9.80;55.60;;;;;;5072777;28;20214;-68
2022/03/14 00:31:30;;;;;;;16.10;13.38;;;9.70;56.70;;;;;;5073750;28;20237;-68
2022/03/14 00:33:56;;;;;;;18.08;13.77;;;9.50;55.90;;;;;;5073556;28;20209;-68
2022/03/14 00:36:25;;;;;;;19.75;14.80;;;9.50;55.60;;;;;;5073700;28;20317;-68
2022/03/14 00:38:54;;;;;;;19.23;14.70;;;9.60;56.50;;;;;;5073705;28;20235;-69
2022/03/14 00:41:22;;;;;;;16.88;13.65;;;9.60;56.10;;;;;;5073703;28;20260;-68
2022/03/14 00:43:49;;;;;;;18.08;14.57;;;9.70;57.40;;;;;;5073642;28;20544;-68
2022/03/14 00:46:16;;;;;;;20.38;15.63;;;9.80;57.50;;;;;;5073543;28;20225;-68
2022/03/14 00:48:43;;;;;;;20.58;15.27;;;9.90;56.70;;;;;;5073699;28;20210;-68
2022/03/14 00:51:11;;;;;;;18.60;14.70;;;10.00;56.20;;;;;;5073279;28;20692;-68
2022/03/14 00:53:38;;;;;;;20.13;14.95;;;9.90;57.20;;;;;;5073346;28;20203;-68
2022/03/14 00:56:07;;;;;;;16.23;13.80;;;9.70;57.00;;;;;;5073260;28;20223;-68
2022/03/14 00:58:34;;;;;;;18.15;14.50;;;9.70;57.00;;;;;;5073494;28;20252;-68
2022/03/14 01:01:01;;;;;;;20.05;14.20;;;9.80;58.10;;;;;;5073526;28;20195;-68
2022/03/14 01:03:28;;;;;;;19.33;14.50;;;9.90;58.00;;;;;;5073430;28;20202;-68
2022/03/14 01:05:55;;;;;;;18.35;13.13;;;9.80;57.00;;;;;;5073413;28;20244;-68
2022/03/14 01:08:21;;;;;;;16.95;13.48;;;9.80;57.60;;;;;;5073425;28;20205;-68
2022/03/14 01:10:48;;;;;;;16.92;13.80;;;9.80;56.60;;;;;;5073496;28;20219;-68
2022/03/14 01:13:17;;;;;;;22.77;14.02;;;9.90;58.50;;;;;;5073236;28;20252;-68
2022/03/14 01:15:44;;;;;;;19.25;14.93;;;9.90;58.70;;;;;;5073175;28;20313;-68
2022/03/14 01:18:13;;;;;;;20.13;13.60;;;9.90;58.00;;;;;;5073420;28;20203;-68
2022/03/14 01:20:39;;;;;;;20.23;15.32;;;9.90;58.20;;;;;;5072936;28;20195;-68
2022/03/14 01:23:06;;;;;;;20.90;13.80;;;10.00;57.10;;;;;;5073241;28;20560;-68
2022/03/14 01:25:33;;;;;;;20.08;13.50;;;10.10;56.50;;;;;;5073011;28;20305;-68
2022/03/14 01:28:01;;;;;;;19.67;14.68;;;10.30;56.50;;;;;;5073368;28;20209;-68
2022/03/14 01:30:29;;;;;;;21.85;15.70;;;10.40;57.60;;;;;;5073046;28;20317;-68
2022/03/14 01:32:56;;;;;;;24.02;17.00;;;10.50;58.80;;;;;;5073168;28;20207;-68
2022/03/14 01:35:22;;;;;;;22.55;17.75;;;10.50;62.80;;;;;;5073055;28;20293;-68
2022/03/14 01:37:51;;;;;;;23.90;18.63;;;10.60;65.80;;;;;;5072898;28;20298;-68
2022/03/14 01:40:19;;;;;;;23.15;18.13;;;10.70;67.90;;;;;;5074274;28;20199;-68
2022/03/14 01:42:46;;;;;;;25.27;19.35;;;10.70;69.60;;;;;;5076827;28;20665;-68
2022/03/14 01:45:14;;;;;;;23.65;18.85;;;10.90;74.90;;;;;;5076651;28;20602;-68
2022/03/14 01:47:43;;;;;;;26.75;19.10;;;10.90;76.90;;;;;;5076894;28;20238;-68
2022/03/14 01:50:11;;;;;;;22.70;18.25;;;11.00;78.20;;;;;;5076790;28;20574;-68
2022/03/14 01:52:38;;;;;;;23.60;18.45;;;10.90;76.00;;;;;;5076537;28;20203;-68
2022/03/14 01:55:06;;;;;;;23.02;17.77;;;11.00;78.90;;;;;;5076510;28;20198;-68
2022/03/14 01:57:34;;;;;;;23.00;18.38;;;11.00;82.30;;;;;;5076709;28;20549;-68
2022/03/14 02:00:01;;;;;;;23.55;19.58;;;11.00;84.10;;;;;;5076351;28;20209;-68
2022/03/14 02:02:28;;;;;;;23.70;19.08;;;11.00;86.40;;;;;;5076797;28;20203;-68
2022/03/14 02:04:56;;;;;;;26.58;19.40;;;11.00;87.40;;;;;;5076366;28;20203;-68
2022/03/14 02:07:23;;;;;;;24.45;19.20;;;11.00;90.10;;;;;;5076172;28;20724;-68
2022/03/14 02:09:50;;;;;;;23.77;19.50;;;11.00;90.60;;;;;;5076362;28;20199;-68
2022/03/14 02:12:17;;;;;;;24.38;19.90;;;11.00;90.90;;;;;;5076359;28;20294;-68
2022/03/14 02:14:44;;;;;;;25.10;20.55;;;11.00;91.50;;;;;;5075856;28;20252;-68
2022/03/14 02:17:12;;;;;;;24.38;19.10;;;11.00;92.10;;;;;;5076304;28;20227;-68
2022/03/14 02:19:39;;;;;;;24.73;19.33;;;11.00;92.60;;;;;;5076270;28;20611;-68
2022/03/14 02:22:12;;;;;;;28.23;20.27;;;11.00;93.20;;;;;;5076138;28;20194;-69
2022/03/14 02:24:40;;;;;;;25.10;20.88;;;11.10;93.80;;;;;;5075863;28;20210;-69
2022/03/14 02:27:07;;;;;;;24.38;20.05;;;11.10;94.00;;;;;;5075770;28;20223;-68
2022/03/14 02:29:34;;;;;;;26.50;19.90;;;11.10;94.30;;;;;;5075725;28;20763;-68
2022/03/14 02:32:01;;;;;;;24.58;19.75;;;11.10;94.20;;;;;;5076014;28;20222;-68
2022/03/14 02:34:27;;;;;;;23.85;19.30;;;11.10;94.80;;;;;;5075882;28;20293;-68
2022/03/14 02:36:54;;;;;;;24.75;20.25;;;11.10;94.90;;;;;;5076019;28;20229;-68
2022/03/14 02:39:22;;;;;;;26.50;20.95;;;11.10;94.20;;;;;;5075958;28;20205;-68
2022/03/14 02:41:49;;;;;;;24.20;21.15;;;11.10;94.00;;;;;;5075779;28;20199;-68
2022/03/14 02:44:16;;;;;;;26.85;21.08;;;11.10;94.10;;;;;;5075693;28;20217;-68
2022/03/14 02:46:43;;;;;;;23.95;19.08;;;11.10;94.40;;;;;;5075452;28;20223;-68
2022/03/14 02:49:12;;;;;;;24.20;19.63;;;11.10;94.40;;;;;;5075603;28;20657;-68
2022/03/14 02:51:40;;;;;;;25.73;20.25;;;11.20;95.00;;;;;;5074820;28;20227;-68
2022/03/14 02:54:08;;;;;;;28.42;20.10;;;11.10;94.50;;;;;;5075277;28;20294;-69
2022/03/14 02:56:36;;;;;;;23.02;19.02;;;11.10;95.30;;;;;;5075331;28;20295;-68
2022/03/14 02:59:03;;;;;;;26.85;20.17;;;11.20;96.40;;;;;;5075549;28;20209;-69
2022/03/14 03:01:30;;;;;;;24.75;19.15;;;11.10;97.50;;;;;;5075317;28;20228;-68
2022/03/14 03:03:57;;;;;;;23.77;19.80;;;11.00;99.30;;;;;;5075295;28;20728;-69
2022/03/14 03:06:24;;;;;;;24.83;19.65;;;10.90;99.90;;;;;;5075170;28;20230;-69
2022/03/14 03:08:52;;;;;;;21.55;18.17;;;10.80;99.90;;;;;;5075356;28;20203;-69
2022/03/14 03:11:19;;;;;;;23.08;17.55;;;10.70;99.90;;;;;;5075233;28;20253;-69
2022/03/14 03:13:48;;;;;;;20.05;16.10;;;10.70;99.90;;;;;;5074953;28;20199;-69
2022/03/14 03:16:16;;;;;;;23.15;15.98;;;10.60;99.90;;;;;;5074980;28;20229;-68
2022/03/14 03:18:44;;;;;;;20.17;15.90;;;10.40;99.90;;;;;;5074889;28;20233;-68
2022/03/14 03:21:11;;;;;;;18.25;15.48;;;10.40;99.90;;;;;;5075180;28;20214;-68
2022/03/14 03:23:39;;;;;;;20.60;15.93;;;10.40;99.90;;;;;;5074782;28;20638;-69
2022/03/14 03:26:06;;;;;;;17.70;14.45;;;10.30;99.90;;;;;;5074982;28;20219;-69
2022/03/14 03:28:35;;;;;;;18.52;14.40;;;10.20;99.90;;;;;;5074764;28;20214;-69
2022/03/14 03:31:05;;;;;;;18.35;15.10;;;10.10;99.90;;;;;;5074865;28;20257;-69
2022/03/14 03:33:32;;;;;;;21.98;17.35;;;10.10;99.90;;;;;;5074636;28;20553;-68
2022/03/14 03:35:59;;;;;;;18.83;13.80;;;10.10;99.90;;;;;;5074551;28;20700;-69
2022/03/14 03:38:26;;;;;;;19.75;14.20;;;10.10;99.90;;;;;;5074757;28;20293;-68
2022/03/14 03:40:53;;;;;;;16.77;13.20;;;10.00;99.90;;;;;;5074696;28;20293;-69
2022/03/14 03:43:20;;;;;;;17.25;13.25;;;9.90;99.90;;;;;;5074427;28;20203;-69
2022/03/14 03:45:47;;;;;;;18.42;14.73;;;9.80;99.90;;;;;;5074450;28;20611;-69
2022/03/14 03:48:15;;;;;;;19.77;14.15;;;9.60;99.90;;;;;;5074598;28;20209;-68
2022/03/14 03:50:42;;;;;;;22.35;16.25;;;9.50;99.90;;;;;;5074376;28;20222;-68
2022/03/14 03:53:09;;;;;;;17.92;14.45;;;9.40;99.90;;;;;;5074117;28;20238;-69
2022/03/14 03:55:36;;;;;;;19.05;14.88;;;9.40;99.90;;;;;;5074343;28;20229;-68
2022/03/14 03:58:03;;;;;;;17.15;14.52;;;9.60;99.90;;;;;;5074430;28;20298;-69
2022/03/14 04:00:30;;;;;;;19.33;14.85;;;9.70;99.90;;;;;;5074539;28;20248;-68
2022/03/14 04:02:57;;;;;;;23.08;16.40;;;9.70;99.90;;;;;;5074196;28;20289;-69
2022/03/14 04:05:27;;;;;;;22.98;16.92;;;9.90;99.90;;;;;;5074786;28;20610;-69
2022/03/14 04:07:58;;;;;;;24.92;17.92;;;9.70;99.90;;;;;;5074235;28;20202;-68
2022/03/14 04:10:28;;;;;;;26.40;17.77;;;9.60;99.90;;;;;;5074195;28;20296;-69
2022/03/14 04:13:04;;;;;;;23.60;18.55;;;9.60;99.90;;;;;;5074329;28;20222;-68
2022/03/14 04:15:31;;;;;;;25.77;20.33;;;9.60;99.90;;;;;;5074043;28;20326;-69
2022/03/14 04:18:00;;;;;;;27.00;19.05;;;9.60;99.90;;;;;;5074026;28;20205;-68
2022/03/14 04:20:28;;;;;;;30.80;21.00;;;9.40;99.90;;;;;;5074001;28;20611;-68
2022/03/14 04:22:55;;;;;;;33.55;23.50;;;9.40;99.90;;;;;;5074375;28;20293;-69
2022/03/14 04:25:22;;;;;;;31.58;21.70;;;9.30;99.90;;;;;;5073734;28;20229;-68
2022/03/14 04:27:48;;;;;;;31.83;21.70;;;9.20;99.90;;;;;;5073788;28;20202;-70
2022/03/14 04:30:16;;;;;;;28.30;19.33;;;9.30;99.90;;;;;;5073862;28;20561;-69
2022/03/14 04:32:45;;;;;;;28.02;18.25;;;9.50;99.90;;;;;;5073755;28;20276;-68
2022/03/14 04:35:12;;;;;;;24.17;18.70;;;9.60;99.90;;;;;;5073623;28;20207;-69
2022/03/14 04:37:40;;;;;;;25.90;18.63;;;9.70;99.90;;;;;;5073819;28;20207;-69
2022/03/14 04:40:09;;;;;;;23.67;18.33;;;9.70;99.90;;;;;;5073722;28;20302;-68
2022/03/14 04:42:37;;;;;;;27.85;20.30;;;9.70;99.90;;;;;;5073632;28;20556;-68
2022/03/14 04:45:04;;;;;;;26.00;18.33;;;9.60;99.90;;;;;;5073638;28;20290;-68
2022/03/14 04:47:31;;;;;;;28.52;20.00;;;9.70;99.90;;;;;;5073318;28;20230;-69
2022/03/14 04:50:18;;;;;;;26.15;19.48;;;9.60;99.90;;;;;;5073505;28;20206;-68
2022/03/14 04:52:46;;;;;;;28.52;19.60;;;9.60;99.90;;;;;;5073353;28;20595;-69
2022/03/14 04:55:13;;;;;;;27.20;18.90;;;9.70;99.90;;;;;;5073208;28;20202;-68
2022/03/14 04:57:40;;;;;;;27.23;19.25;;;9.60;99.90;;;;;;5073434;28;20669;-69
2022/03/14 05:00:08;;;;;;;28.52;19.58;;;9.60;99.90;;;;;;5073321;28;20664;-69
2022/03/14 05:02:36;;;;;;;22.70;15.43;;;9.40;99.90;;;;;;5073517;28;20285;-68
2022/03/14 05:05:03;;;;;;;17.27;14.07;;;9.40;99.90;;;;;;5073313;28;20202;-68
2022/03/14 05:07:29;;;;;;;12.93;10.43;;;9.50;99.90;;;;;;5073456;28;20309;-69
2022/03/14 05:09:58;;;;;;;14.60;11.43;;;9.50;99.90;;;;;;5073161;28;20314;-69
2022/03/14 05:12:25;;;;;;;16.02;12.55;;;9.50;99.90;;;;;;5073330;28;20230;-69
2022/03/14 05:14:52;;;;;;;13.18;10.40;;;9.40;99.90;;;;;;5073780;28;20319;-69
2022/03/14 05:17:19;;;;;;;11.10;8.18;;;9.50;99.90;;;;;;5077227;28;20233;-68
2022/03/14 05:19:46;;;;;;;9.38;7.80;;;9.50;99.90;;;;;;5077420;28;20198;-69
2022/03/14 05:22:12;;;;;;;8.25;6.57;;;9.50;99.90;;;;;;5077336;28;20249;-69
2022/03/14 05:24:39;;;;;;;7.38;6.18;;;9.50;99.90;;;;;;5077167;28;20205;-69
2022/03/14 05:27:08;;;;;;;5.88;5.28;;;9.50;99.90;;;;;;5077238;28;20254;-69
2022/03/14 05:29:35;;;;;;;4.32;3.92;;;9.60;99.90;;;;;;5077222;28;20215;-69
2022/03/14 05:32:02;;;;;;;14.10;9.75;;;9.50;99.90;;;;;;5077142;28;20230;-69
2022/03/14 05:34:29;;;;;;;5.35;4.05;;;9.60;99.90;;;;;;5076707;28;20211;-69
2022/03/14 05:36:55;;;;;;;3.00;2.80;;;9.50;99.90;;;;;;5076927;28;20226;-69
2022/03/14 05:39:22;;;;;;;2.30;2.10;;;9.50;99.90;;;;;;5076718;28;20199;-68
2022/03/14 05:41:49;;;;;;;2.08;1.98;;;9.40;99.90;;;;;;5076965;28;20195;-69
2022/03/14 05:44:17;;;;;;;2.50;1.88;;;9.50;99.90;;;;;;5076599;28;20293;-69
2022/03/14 05:46:44;;;;;;;1.50;1.40;;;9.50;99.90;;;;;;5076656;28;20309;-68
2022/03/14 05:49:11;;;;;;;2.13;1.50;;;9.40;99.90;;;;;;5076579;28;20691;-68
2022/03/14 05:51:39;;;;;;;1.83;1.73;;;9.50;99.90;;;;;;5076685;28;20321;-68
2022/03/14 05:54:06;;;;;;;1.75;1.55;;;9.50;99.90;;;;;;5076767;28;20199;-68
2022/03/14 05:56:33;;;;;;;2.35;1.50;;;9.50;99.90;;;;;;5076382;28;20257;-69
2022/03/14 05:59:00;;;;;;;3.95;3.03;;;9.40;99.90;;;;;;5076692;28;20765;-69
2022/03/14 06:01:28;;;;;;;2.40;2.20;;;9.50;99.90;;;;;;5076507;28;20210;-68
2022/03/14 06:03:55;;;;;;;1.33;1.23;;;9.50;99.90;;;;;;5076265;28;20209;-69
2022/03/14 06:06:22;;;;;;;1.10;1.10;;;9.50;99.90;;;;;;5076230;28;20226;-68
2022/03/14 06:08:48;;;;;;;1.60;1.50;;;9.50;99.90;;;;;;5076790;28;20206;-68
2022/03/14 06:11:15;;;;;;;1.58;1.38;;;9.50;99.90;;;;;;5076229;28;20298;-68
2022/03/14 06:13:43;;;;;;;1.08;1.00;;;9.50;99.90;;;;;;5076173;28;20206;-68
2022/03/14 06:16:10;;;;;;;9.20;5.85;;;9.40;99.90;;;;;;5076325;28;20224;-68
2022/03/14 06:18:38;;;;;;;1.70;1.60;;;9.40;99.90;;;;;;5076331;28;20208;-68
2022/03/14 06:21:05;;;;;;;1.08;1.08;;;9.40;99.90;;;;;;5076259;28;20211;-68
2022/03/14 06:23:32;;;;;;;1.40;1.30;;;9.40;99.90;;;;;;5076190;28;20278;-69
2022/03/14 06:25:59;;;;;;;1.73;1.63;;;9.50;99.90;;;;;;5075657;28;20722;-68
2022/03/14 06:28:26;;;;;;;1.38;1.00;;;9.50;99.90;;;;;;5075307;28;20206;-69
2022/03/14 06:30:53;;;;;;;1.73;1.10;;;9.50;99.90;;;;;;5076090;28;20202;-69
2022/03/14 06:33:20;;;;;;;1.63;1.20;;;9.50;99.90;;;;;;5075780;28;20254;-69
2022/03/14 06:35:49;;;;;;;2.40;1.27;;;9.40;99.90;;;;;;5075640;28;20272;-69
2022/03/14 06:38:15;;;;;;;1.10;1.00;;;9.40;99.90;;;;;;5075802;28;20293;-69
2022/03/14 06:40:42;;;;;;;2.97;1.35;;;9.50;99.90;;;;;;5075977;28;20226;-69
2022/03/14 06:43:11;;;;;;;1.42;1.33;;;9.50;99.90;;;;;;5075672;28;20199;-68
2022/03/14 06:45:39;;;;;;;2.08;1.50;;;9.40;99.90;;;;;;5075727;28;20317;-68
2022/03/14 06:48:07;;;;;;;1.08;0.98;;;9.50;99.90;;;;;;5075756;28;20560;-68
2022/03/14 06:50:35;;;;;;;3.10;1.25;;;9.40;99.90;;;;;;5076032;28;20293;-68
2022/03/14 06:53:03;;;;;;;4.50;1.80;;;9.40;99.90;;;;;;5075318;28;20219;-68
2022/03/14 06:55:30;;;;;;;3.78;3.00;;;9.40;99.90;;;;;;5075476;28;20233;-68
2022/03/14 06:57:57;;;;;;;1.23;1.13;;;9.40;99.90;;;;;;5075512;28;20209;-68
2022/03/14 07:00:24;;;;;;;1.33;1.20;;;9.30;99.90;;;;;;5075274;28;20294;-68
2022/03/14 07:02:51;;;;;;;1.88;1.20;;;9.30;99.90;;;;;;5075269;28;20209;-68
2022/03/14 07:05:21;;;;;;;3.25;1.35;;;9.30;99.90;;;;;;5075216;28;20209;-68
2022/03/14 07:07:48;;;;;;;9.80;5.95;;;9.30;99.90;;;;;;5075716;28;20203;-68
2022/03/14 07:10:17;;;;;;;1.35;1.25;;;9.30;99.90;;;;;;5075222;28;20217;-68
2022/03/14 07:12:46;;;;;;;2.45;1.27;;;9.30;99.90;;;;;;5075168;28;20313;-68
2022/03/14 07:15:14;;;;;;;1.20;1.10;;;9.20;99.90;;;;;;5074763;28;20245;-69
2022/03/14 07:17:41;;;;;;;2.10;1.20;;;9.20;99.90;;;;;;5075265;28;20202;-68
2022/03/14 07:20:10;;;;;;;2.60;1.45;;;9.30;99.90;;;;;;5075184;28;20203;-69
2022/03/14 07:22:52;;;;;;;1.15;1.10;;;9.30;99.90;;;;;;5075130;28;20217;-69
2022/03/14 07:25:25;;;;;;;1.00;1.00;;;9.30;99.90;;;;;;5074745;28;20233;-68
2022/03/14 07:27:52;;;;;;;1.13;1.02;;;9.30;99.90;;;;;;5075267;28;20209;-69
2022/03/14 07:30:19;;;;;;;1.65;1.15;;;9.30;99.90;;;;;;5074960;28;20209;-68
2022/03/14 07:32:47;;;;;;;1.40;1.30;;;9.40;99.90;;;;;;5074785;28;20218;-68
2022/03/14 07:35:14;;;;;;;1.80;1.10;;;9.40;99.90;;;;;;5074566;28;20576;-68
2022/03/14 07:37:41;;;;;;;1.50;1.40;;;9.40;99.90;;;;;;5074547;28;20568;-68
2022/03/14 07:40:09;;;;;;;4.18;3.05;;;9.40;99.90;;;;;;5074701;28;20298;-69
2022/03/14 07:42:42;;;;;;;3.75;1.30;;;9.40;99.90;;;;;;5074708;28;20542;-69
2022/03/14 07:45:10;;;;;;;1.20;1.10;;;9.40;99.90;;;;;;5074502;28;20203;-69
2022/03/14 07:47:37;;;;;;;1.48;0.95;;;9.40;99.90;;;;;;5074646;28;20206;-69
2022/03/14 07:50:06;;;;;;;2.20;1.30;;;9.50;99.90;;;;;;5074489;28;20203;-69
2022/03/14 07:52:33;;;;;;;1.15;0.90;;;9.50;99.90;;;;;;5074409;28;20306;-69
2022/03/14 07:55:00;;;;;;;1.20;0.73;;;9.60;99.90;;;;;;5074082;28;20664;-68
2022/03/14 07:57:27;;;;;;;0.80;0.80;;;9.60;99.90;;;;;;5074444;28;20222;-69
2022/03/14 07:59:55;;;;;;;2.75;1.17;;;9.60;99.90;;;;;;5074282;28;20203;-69
2022/03/14 08:02:23;;;;;;;2.55;1.00;;;9.70;99.90;;;;;;5074546;28;20195;-69
2022/03/14 08:04:50;;;;;;;1.17;0.95;;;9.80;99.90;;;;;;5073848;28;20554;-68
2022/03/14 08:07:18;;;;;;;0.95;0.90;;;9.80;99.90;;;;;;5073882;28;20225;-68
2022/03/14 08:09:44;;;;;;;1.23;1.17;;;10.00;99.90;;;;;;5074199;28;20199;-68
2022/03/14 08:12:12;;;;;;;1.05;0.80;;;10.10;99.90;;;;;;5073977;28;20712;-69
2022/03/14 08:14:39;;;;;;;2.60;0.80;;;10.30;99.90;;;;;;5073957;28;20199;-69
2022/03/14 08:17:07;;;;;;;1.25;1.10;;;10.40;99.90;;;;;;5074016;28;20718;-69
2022/03/14 08:19:34;;;;;;;0.88;0.80;;;10.50;99.90;;;;;;5074285;28;20203;-69
2022/03/14 08:22:01;;;;;;;1.67;0.90;;;10.60;99.90;;;;;;5073905;28;20210;-69
2022/03/14 08:24:28;;;;;;;3.13;0.95;;;10.60;99.90;;;;;;5073814;28;20228;-68
2022/03/14 08:26:55;;;;;;;1.35;1.00;;;10.60;99.90;;;;;;5073914;28;20230;-69
2022/03/14 08:29:22;;;;;;;1.00;1.00;;;10.50;99.90;;;;;;5073808;28;20214;-69
2022/03/14 08:31:49;;;;;;;2.78;1.00;;;10.60;99.90;;;;;;5073765;28;20211;-69
2022/03/14 08:34:17;;;;;;;2.28;1.10;;;10.60;99.90;;;;;;5073648;28;20203;-68
2022/03/14 08:36:44;;;;;;;0.85;0.85;;;10.60;99.90;;;;;;5073549;28;20225;-68
2022/03/14 08:39:11;;;;;;;2.80;0.75;;;10.50;99.90;;;;;;5073627;28;20737;-68
2022/03/14 08:41:39;;;;;;;1.45;0.90;;;10.50;99.90;;;;;;5073716;28;20208;-68
2022/03/14 08:44:06;;;;;;;2.58;1.10;;;10.40;99.90;;;;;;5073320;28;20211;-68
2022/03/14 08:46:33;;;;;;;1.80;1.10;;;10.50;99.90;;;;;;5073390;28;20726;-68
2022/03/14 08:49:01;;;;;;;2.20;1.10;;;10.40;99.90;;;;;;5073597;28;20293;-68
2022/03/14 08:51:29;;;;;;;1.73;1.10;;;10.50;99.90;;;;;;5073008;28;20202;-68
2022/03/14 08:53:56;;;;;;;1.67;0.90;;;10.50;99.90;;;;;;5073265;28;20599;-68
2022/03/14 08:56:23;;;;;;;3.83;1.10;;;10.80;99.90;;;;;;5073417;28;20727;-68
2022/03/14 08:58:50;;;;;;;1.60;1.30;;;11.00;99.70;;;;;;5073295;28;20202;-68
2022/03/14 09:01:17;;;;;;;2.35;1.10;;;11.10;99.50;;;;;;5073302;28;20213;-68
2022/03/14 09:03:43;;;;;;;1.75;1.15;;;11.00;98.70;;;;;;5073370;28;20234;-68
2022/03/14 09:06:10;;;;;;;2.53;1.02;;;10.90;98.70;;;;;;5073312;28;20223;-68
2022/03/14 09:08:39;;;;;;;2.42;1.20;;;10.90;98.60;;;;;;5073551;28;20198;-68
2022/03/14 09:11:06;;;;;;;2.63;1.50;;;10.80;98.30;;;;;;5073423;28;20206;-68
2022/03/14 09:13:33;;;;;;;3.20;1.23;;;10.80;97.20;;;;;;5073064;28;20306;-68
2022/03/14 09:15:59;;;;;;;2.00;1.13;;;11.00;97.80;;;;;;5073426;28;20554;-68
2022/03/14 09:18:31;;;;;;;2.58;1.02;;;11.00;97.20;;;;;;5073696;28;20249;-68
2022/03/14 09:20:58;;;;;;;2.13;1.05;;;11.30;97.60;;;;;;5073221;28;20569;-69
2022/03/14 09:23:26;;;;;;;3.38;1.30;;;11.60;96.80;;;;;;5073142;28;20218;-68
2022/03/14 09:25:56;;;;;;;1.58;1.20;;;11.60;96.10;;;;;;5073225;28;20314;-69
2022/03/14 09:28:23;;;;;;;3.15;1.17;;;11.60;96.00;;;;;;5073203;28;20232;-69
2022/03/14 09:30:50;;;;;;;3.00;1.10;;;11.60;95.40;;;;;;5073251;28;20199;-68
2022/03/14 09:33:17;;;;;;;1.58;1.40;;;11.50;94.60;;;;;;5072933;28;20573;-69
2022/03/14 09:35:44;;;;;;;1.60;1.17;;;11.60;95.00;;;;;;5073221;28;20229;-69
2022/03/14 09:38:14;;;;;;;2.95;1.20;;;11.60;94.60;;;;;;5073492;28;20203;-69
2022/03/14 09:40:42;;;;;;;1.90;1.10;;;11.60;94.90;;;;;;5073077;28;20271;-69
2022/03/14 09:43:11;;;;;;;1.90;1.10;;;11.70;94.80;;;;;;5073026;28;20199;-69
2022/03/14 09:45:39;;;;;;;2.85;1.10;;;11.80;94.80;;;;;;5072984;28;20230;-69
2022/03/14 09:48:09;;;;;;;3.80;1.30;;;12.00;94.90;;;;;;5072875;28;20676;-68
2022/03/14 09:50:39;;;;;;;2.22;1.30;;;12.10;93.80;;;;;;5073099;28;20300;-69
2022/03/14 09:53:07;;;;;;;1.92;0.93;;;12.00;93.30;;;;;;5073437;28;20227;-69
2022/03/14 09:55:40;;;;;;;2.17;1.02;;;11.90;93.00;;;;;;5072941;28;20257;-69
2022/03/14 09:58:09;;;;;;;2.95;1.50;;;11.90;92.00;;;;;;5073053;28;20194;-69
2022/03/14 10:00:37;;;;;;;5.60;1.13;;;12.10;92.40;;;;;;5073052;28;20209;-69
2022/03/14 10:03:05;;;;;;;2.30;1.60;;;12.30;92.10;;;;;;5076466;28;20203;-69
2022/03/14 10:05:32;;;;;;;2.42;1.38;;;12.60;92.30;;;;;;5076466;28;20218;-69
2022/03/14 10:07:59;;;;;;;3.30;1.50;;;12.70;92.40;;;;;;5076563;28;20279;-69
2022/03/14 10:10:26;;;;;;;2.20;1.10;;;13.10;91.80;;;;;;5076535;28;20571;-69
2022/03/14 10:12:54;;;;;;;1.67;0.82;;;13.90;90.10;;;;;;5076404;28;20242;-69
2022/03/14 10:15:23;;;;;;;2.67;1.17;;;14.90;84.70;;;;;;5076271;28;20209;-69
2022/03/14 10:17:51;;;;;;;2.40;1.10;;;15.70;78.20;;;;;;5076448;28;20633;-69
2022/03/14 10:20:18;;;;;;;1.58;0.90;;;16.60;73.50;;;;;;5076229;28;20203;-69
2022/03/14 10:22:46;;;;;;;2.83;1.30;;;17.90;69.60;;;;;;5076269;28;20241;-69
2022/03/14 10:25:15;;;;;;;3.30;1.13;;;17.90;63.90;;;;;;5076043;28;20206;-69
2022/03/14 10:27:45;;;;;;;3.75;1.25;;;17.80;61.10;;;;;;5075837;28;20209;-69
2022/03/14 10:30:26;;;;;;;1.83;1.00;;;17.40;60.20;;;;;;5076466;28;20584;-68
2022/03/14 10:33:01;;;;;;;1.90;1.08;;;16.70;61.20;;;;;;5076032;28;20222;-69
2022/03/14 10:35:33;;;;;;;2.15;1.67;;;17.10;61.70;;;;;;5076004;28;20207;-69
2022/03/14 10:38:02;;;;;;;4.10;1.90;;;17.90;59.20;;;;;;5076161;28;20195;-69
2022/03/14 10:40:31;;;;;;;1.88;1.05;;;17.70;59.60;;;;;;5075943;28;20207;-69
2022/03/14 10:42:57;;;;;;;1.73;1.10;;;17.70;60.30;;;;;;5075767;28;20199;-69
2022/03/14 10:45:26;;;;;;;2.80;1.13;;;18.10;61.10;;;;;;5075971;28;20294;-69
2022/03/14 10:47:57;;;;;;;6.17;4.00;;;18.60;60.20;;;;;;5076091;28;20286;-69
2022/03/14 10:50:34;;;;;;;2.30;1.65;;;19.20;57.90;;;;;;5075588;28;20538;-69
2022/03/14 10:53:09;;;;;;;2.67;1.60;;;19.20;58.00;;;;;;5075521;28;20225;-69
2022/03/14 10:55:41;;;;;;;1.65;0.90;;;19.10;57.40;;;;;;5075567;28;20732;-69
2022/03/14 10:58:09;;;;;;;1.00;0.90;;;19.10;54.90;;;;;;5075687;28;20208;-69
2022/03/14 11:00:52;;;;;;;1.48;1.05;;;18.40;54.30;;;;;;5075577;28;20215;-69
2022/03/14 11:03:39;;;;;;;1.10;1.00;;;18.10;55.00;;;;;;5075376;28;20297;-68
2022/03/14 11:06:07;;;;;;;1.35;0.90;;;18.70;54.00;;;;;;5075457;28;20322;-69
2022/03/14 11:08:37;;;;;;;3.43;1.10;;;19.00;52.50;;;;;;5075438;28;20206;-69
2022/03/14 11:11:05;;;;;;;2.00;1.30;;;19.70;51.10;;;;;;5075374;28;20452;-69
2022/03/14 11:13:33;;;;;;;1.60;0.97;;;20.10;49.90;;;;;;5074349;28;20483;-69
2022/03/14 11:16:01;;;;;;;1.27;1.00;;;20.30;48.70;;;;;;5075142;28;21072;-69
2022/03/14 11:18:29;;;;;;;1.60;1.00;;;20.20;48.00;;;;;;5074985;28;20603;-69
2022/03/14 11:20:58;;;;;;;1.73;1.10;;;20.30;48.20;;;;;;5074948;28;20444;-69
2022/03/14 11:23:25;;;;;;;1.17;1.07;;;20.50;47.10;;;;;;5074965;28;20437;-69
2022/03/14 11:25:53;;;;;;;1.90;0.90;;;20.70;47.20;;;;;;5074974;28;20486;-70
2022/03/14 11:28:21;;;;;;;1.73;1.00;;;20.90;48.10;;;;;;5074871;28;20510;-69
2022/03/14 11:30:54;;;;;;;1.60;1.30;;;21.60;47.50;;;;;;5074897;28;20922;-69
2022/03/14 11:33:23;;;;;;;2.50;1.57;;;21.50;46.10;;;;;;5074726;28;20567;-69
2022/03/14 11:35:51;;;;;;;2.20;1.33;;;21.90;46.60;;;;;;5074797;28;20465;-69
2022/03/14 11:38:19;;;;;;;1.33;0.90;;;21.70;44.60;;;;;;5074837;28;20451;-69
2022/03/14 11:40:47;;;;;;;2.50;1.13;;;21.50;44.30;;;;;;5074653;28;20445;-69
2022/03/14 11:43:18;;;;;;;1.60;1.00;;;21.10;45.30;;;;;;5074584;28;20444;-69
2022/03/14 11:45:46;;;;;;;1.10;0.90;;;20.80;45.10;;;;;;5074604;28;20566;-69
2022/03/14 11:48:14;;;;;;;2.00;1.10;;;20.10;47.70;;;;;;5074629;28;20447;-70
2022/03/14 11:50:48;;;;;;;2.20;1.20;;;19.90;48.70;;;;;;5074569;28;20446;-70
2022/03/14 11:53:21;;;;;;;1.83;1.20;;;19.40;48.20;;;;;;5074182;28;20473;-69
2022/03/14 11:55:54;;;;;;;1.80;1.10;;;18.90;48.80;;;;;;5074217;28;20754;-69
2022/03/14 11:58:36;;;;;;;1.63;1.25;;;18.30;50.30;;;;;;5074449;28;20652;-69
2022/03/14 12:01:20;;;;;;;2.20;1.15;;;18.00;50.00;;;;;;5074428;28;20213;-69
2022/03/14 12:03:50;;;;;;;2.42;1.10;;;18.10;51.10;;;;;;5074088;28;20202;-69
2022/03/14 12:06:18;;;;;;;1.40;1.00;;;18.70;50.30;;;;;;5074020;28;20718;-69
2022/03/14 12:08:55;;;;;;;1.20;0.80;;;19.30;48.20;;;;;;5074241;28;20445;-69
2022/03/14 12:11:42;;;;;;;1.47;1.10;;;20.10;47.40;;;;;;5074025;28;20547;-69
2022/03/14 12:14:13;;;;;;;3.90;1.10;;;20.30;48.20;;;;;;5073815;28;20519;-69
2022/03/14 12:16:42;;;;;;;2.40;1.53;;;20.40;47.70;;;;;;5073920;28;20874;-69
2022/03/14 12:19:28;;;;;;;1.70;1.07;;;21.00;48.70;;;;;;5074072;28;20445;-70
2022/03/14 12:21:57;;;;;;;1.47;1.20;;;21.60;45.90;;;;;;5073207;28;20447;-68
2022/03/14 12:24:45;;;;;;;1.20;0.97;;;21.80;46.30;;;;;;5073080;28;20478;-67
2022/03/14 12:27:20;;;;;;;3.03;1.30;;;21.60;44.60;;;;;;5074025;28;20465;-68
2022/03/14 12:29:49;;;;;;;2.23;1.10;;;20.70;44.70;;;;;;5073537;28;20459;-69
2022/03/14 12:32:27;;;;;;;2.03;1.00;;;20.20;46.10;;;;;;5073848;28;20547;-69
2022/03/14 12:34:58;;;;;;;1.35;1.10;;;19.70;46.30;;;;;;5073303;28;21007;-70
2022/03/14 12:37:31;;;;;;;3.35;2.22;;;18.90;47.00;;;;;;5073857;28;20311;-69
2022/03/14 12:39:58;;;;;;;1.35;1.13;;;18.40;49.40;;;;;;5073771;28;20206;-69
2022/03/14 12:42:26;;;;;;;1.50;1.20;;;18.00;49.40;;;;;;5073788;28;20225;-69
2022/03/14 12:45:16;;;;;;;2.05;1.00;;;17.60;49.60;;;;;;5073829;28;20202;-69
2022/03/14 12:47:43;;;;;;;1.50;0.90;;;17.30;51.00;;;;;;5073446;28;20687;-69
2022/03/14 12:50:11;;;;;;;3.63;1.15;;;17.10;51.80;;;;;;5073638;28;20563;-69